Thursday, August 25, 2016, 2:23 PM EDT

KPHF, Williamsburg International Airport

Location: Newport News, VA, United States Lat: 37.133
Local Time: 2:23 PM EDT (18:23 GMT) Lon: -76.5
Time Zone: US/Eastern Elev: 42 ft

Show me the last for .
Show Decoded

2016-08-25 13:54 METAR KPHF 251754Z 18006KT 10SM FEW042 30/20 A3011 RMK AO2 SLP195 T03000200
                 10306 20239 56019 =
2016-08-25 12:54 METAR KPHF 251654Z 18013KT 10SM FEW043 30/20 A3012 RMK AO2 SLP200 T03000200 =
2016-08-25 11:54 METAR KPHF 251554Z 21007KT 10SM CLR 29/19 A3015 RMK AO2 SLP208 T02890194 =
2016-08-25 10:54 METAR KPHF 251454Z 23007KT 10SM FEW048 28/20 A3017 RMK AO2 SLP214 T02830200
                 55001 =
2016-08-25 09:54 METAR KPHF 251354Z 24010KT 10SM CLR 27/21 A3016 RMK AO2 SLP213 T02670206 =
2016-08-25 08:54 METAR KPHF 251254Z 22007KT 10SM CLR 26/21 A3016 RMK AO2 SLP213 T02560211 =
2016-08-25 07:54 METAR KPHF 251154Z 21007KT 10SM CLR 24/22 A3017 RMK AO2 SLP215 T02390217 10239
                 20178 51005 =
2016-08-25 06:54 METAR KPHF 251054Z 23003KT 10SM CLR 22/21 A3017 RMK AO2 SLP215 T02170206 =
2016-08-25 05:54 METAR KPHF 250954Z 20003KT 10SM CLR 21/19 A3016 RMK AO2 SLP212 T02060189 =
2016-08-25 04:54 METAR KPHF 250854Z 22003KT 10SM CLR 21/19 A3015 RMK AO2 SLP210 T02060194 56009 =
2016-08-25 03:54 METAR KPHF 250754Z 00000KT 7SM CLR 18/18 A3016 RMK AO2 SLP212 T01830178 =
2016-08-25 03:47 METAR KPHF 250747Z 00000KT 3SM BR CLR 18/18 A3016 RMK AO2 T01780178 =
2016-08-25 03:36 METAR KPHF 250736Z 00000KT 1 3/4SM BR CLR 18/18 A3016 RMK AO2 T01830178 =
2016-08-25 02:54 METAR KPHF 250654Z 00000KT 10SM CLR 19/18 A3016 RMK AO2 SLP213 T01890183 =
2016-08-25 01:54 METAR KPHF 250554Z 00000KT 10SM CLR 19/18 A3018 RMK AO2 SLP219 T01890183 10228
                 20178 58008 =
2016-08-25 00:54 METAR KPHF 250454Z 00000KT 10SM CLR 19/18 A3019 RMK AO2 SLP223 T01890178
                 402940150 =
2016-08-24 23:54 METAR KPHF 250354Z 00000KT 10SM CLR 19/18 A3020 =
2016-08-24 22:54 METAR KPHF 250254Z 00000KT 10SM CLR 19/18 A3021 RMK AO2 SLP228 T01940183 58001 =
2016-08-24 21:54 METAR KPHF 250154Z 00000KT 10SM CLR 21/18 A3022 RMK AO2 SLP231 T02060178 =
2016-08-24 20:54 METAR KPHF 250054Z 10003KT 10SM CLR 21/18 A3022 RMK AO2 SLP231 T02110178 =
2016-08-24 20:04 METAR KPHF 250004Z 10005KT 10SM FEW002 22/17 A3021 RMK AO2 T02220167 =
2016-08-24 19:54 METAR KPHF 242354Z 10005KT 10SM CLR 23/17 A3021 RMK AO2 SLP228 T02280167 10294
                 20228 55005 =
2016-08-24 18:54 METAR KPHF 242254Z 10008KT 10SM CLR 26/15 A3020 RMK AO2 SLP225 T02560150 =
2016-08-24 17:54 METAR KPHF 242154Z AUTO 09007KT 10SM CLR 27/16 A3021 RMK AO2 SLP230 T02720156 =
2016-08-24 16:54 METAR KPHF 242054Z AUTO 13008G16KT 10SM CLR 28/16 A3022 RMK AO2 SLP234 T02780156
                 56017 =
2016-08-24 15:54 METAR KPHF 241954Z AUTO VRB05KT 10SM CLR 29/13 A3024 RMK AO2 SLP238 T02890133 =
2016-08-24 14:54 METAR KPHF 241854Z VRB06KT 10SM CLR 29/13 A3026 RMK AO2 SLP245 T02890133 =

Support USWX by starting your Amazon purchase here.